Sunbury, North Carolina
Current Conditions -  °F | °C
As of 8:35 AM on Monday 24 Nov 2014 (Local Time) from KCPK Reporting Station
Scattered Clouds Scattered Clouds  
Wind Chill: 72°   Ceiling: Unl
Heat Index: 72°   Visibility: 10mi
Dew Point: 66°   Wind: 13mph
Humidity: 83%   Direction: 200°SSW
Pressure: 29.83"   Gusts: 21mph
Location:  36.44°N, 76.61°W
Report Text: KCPK 241335Z AUTO 20011G18KT 10SM SCT015 SCT020 22/19 A2983 RMK AO2 LTG DSNT S
Loading
Personal Weather Stations






























Interactive Weather Map New forecast layout! Learn more

10-Day Weather Forecast

Advertisements
Track Severe Weather on mobile